This is the latest recevied weather packets stored in our database for station/object Huerbel. If no packets are shown the sender has not sent any weather packets the latest 10 day(s).
| Time | Temp. | Humidity | Pressure | Rain* | Wind** | Luminosity | Snow |
|---|---|---|---|---|---|---|---|
| 1777919529 | 17.22° C | 67% | 1012.3 hPa | 0 mm | - | - | - |
| 1777917734 | 19.44° C | 53% | 1012.1 hPa | 0 mm | - | - | - |
| 1777915929 | 20.56° C | 53% | 1011.9 hPa | 0 mm | - | - | - |
| 1777914130 | 20.56° C | 52% | 1011.8 hPa | 0 mm | - | - | - |
| 1777912332 | 21.67° C | 46% | 1011.9 hPa | 0 mm | - | - | - |
| 1777910530 | 21.67° C | 43% | 1011.8 hPa | 0 mm | - | - | - |
| 1777908732 | 21.67° C | 44% | 1011.9 hPa | 0 mm | - | - | - |
| 1777906930 | 21.67° C | 45% | 1012 hPa | 0 mm | - | - | - |
| 1777905129 | 21.67° C | 45% | 1012.2 hPa | 0 mm | - | - | - |
| 1777903330 | 22.22° C | 44% | 1012.3 hPa | 0 mm | - | - | - |
| 1777901532 | 21.67° C | 44% | 1012.6 hPa | 0 mm | - | - | - |
| 1777899735 | 22.22° C | 44% | 1012.9 hPa | 0 mm | - | - | - |
| 1777897935 | 21.11° C | 45% | 1013.3 hPa | 0 mm | - | - | - |
| 1777896130 | 20.56° C | 46% | 1013.4 hPa | 0 mm | - | - | - |
| 1777894331 | 21.11° C | 43% | 1013.5 hPa | 0 mm | - | - | - |
| 1777892530 | 20.56° C | 46% | 1013.9 hPa | 0 mm | - | - | - |
| 1777890735 | 20.56° C | 44% | 1014.1 hPa | 0 mm | - | - | - |
| 1777888932 | 20° C | 45% | 1014.5 hPa | 0 mm | - | - | - |
| 1777887130 | 20.56° C | 44% | 1014.6 hPa | 0 mm | - | - | - |
| 1777885331 | 19.44° C | 46% | 1014.8 hPa | 0 mm | - | - | - |
| 1777883533 | 17.78° C | 54% | 1015 hPa | 0 mm | - | - | - |
| 1777881731 | 17.22° C | 55% | 1015.3 hPa | 0 mm | - | - | - |
| 1777879930 | 15.56° C | 59% | 1015.5 hPa | 0 mm | - | - | - |
| 1777878132 | 13.33° C | 71% | 1015.6 hPa | 0 mm | - | - | - |
| 1777876331 | 11.11° C | 80% | 1015.5 hPa | 0 mm | - | - | - |
* Rain since midnight (hover to see other rain measurements)
** Current wind speed in m/s (hover to see current wind gust speed)